map of BWB home
BWB - Airport
Location
City:  Barrow Island, Western Australia, Australia
ICAO:YBWX
IATA:BWB

Details
Type:Airport (Aerodrome, Airfield)
Latitude:2051'52"S (-20.864443)
Longitude:11524'22"E (115.406111)
Datum:WGS 1984
Elevation:26 ft (8 m)
Variation:0.73E (WMM2015 magnetic declination)
-0.05 annual change
Runways:1
Longest:6234 × 98 ft (1900 × 30 m), paved

Time
Time Zone:UTC+8
Local Time:

Weather
METAR:YBWX 121300Z AUTO 25016KT //// // ////// 26/21 Q1010

Related Locations
Nearby:
Farthest:NGD: 12282 mi / 19766 km
Anegada (The Settlement) [Capt. Auguste George Airport], Anegada, VG

Find:

   beyond  
but within

Other Information
Maps:
NOTAMs:
Links:
Sources:

  
flag of Australia
flag of Western Australia
  

Sectional Chart

Flight Planning
at skyvector.com

Satellite Image

Google Maps Satellite view

 

Copyright © 2004-2017 Karl L. Swartz. All rights reserved.
The Great Circle Mapper name and logo are trademarks of the Great Circle Mapper.
All other trademarks mentioned herein belong to their respective owners.
Please see credits for attibutions and further copyright information.

  Follow gcmap on Facebook Follow gcmap on Twitter Follow gcmap on Google+ GCmap on LinkedIn

hCard Microformat

Geo Microformat